createdAt,value
2022-08-19T00:00:18.164Z,0.00
2022-08-19T00:05:23.171Z,0.00
2022-08-19T00:10:29.228Z,0.00
2022-08-19T00:15:18.261Z,0.00
2022-08-19T00:20:24.423Z,0.00
2022-08-19T00:25:30.888Z,0.00
2022-08-19T00:30:19.506Z,0.00
2022-08-19T00:35:25.576Z,0.00
2022-08-19T00:40:31.644Z,0.00
2022-08-19T00:45:20.649Z,0.00
2022-08-19T00:50:26.773Z,0.00
2022-08-19T00:55:33.103Z,0.00
2022-08-19T01:00:21.847Z,0.00
2022-08-19T01:05:27.688Z,0.00
2022-08-19T01:10:16.747Z,0.00
2022-08-19T01:15:22.781Z,0.00
2022-08-19T01:20:28.259Z,0.00
2022-08-19T01:25:17.309Z,0.00
2022-08-19T01:30:23.401Z,0.00
2022-08-19T01:35:29.431Z,0.00
2022-08-19T01:40:18.553Z,0.00
2022-08-19T01:45:26.708Z,0.00
2022-08-19T01:50:30.737Z,0.00
2022-08-19T01:55:19.685Z,0.00
2022-08-19T02:00:26.000Z,0.00
2022-08-19T02:05:30.855Z,0.00
2022-08-19T02:10:19.856Z,0.00
2022-08-19T02:15:25.969Z,0.00
2022-08-19T02:20:32.047Z,0.00
2022-08-19T02:25:21.070Z,0.00
2022-08-19T02:30:27.197Z,0.00
2022-08-19T02:35:16.158Z,0.00
2022-08-19T02:40:22.232Z,0.00
2022-08-19T02:45:28.264Z,0.00
2022-08-19T02:50:17.300Z,0.00
2022-08-19T02:55:23.401Z,0.00
2022-08-19T03:00:29.654Z,0.00
2022-08-19T03:05:17.566Z,0.00
2022-08-19T03:10:23.645Z,0.00
2022-08-19T03:15:29.683Z,0.00
2022-08-19T03:20:18.954Z,0.00
2022-08-19T03:25:25.028Z,0.00
2022-08-19T03:30:31.204Z,0.00
2022-08-19T03:35:20.180Z,0.00
2022-08-19T03:40:26.206Z,0.00
2022-08-19T03:45:32.222Z,0.00
2022-08-19T03:50:21.258Z,0.00
2022-08-19T03:55:27.352Z,0.00
2022-08-19T04:00:16.484Z,0.00
2022-08-19T04:05:24.660Z,0.00
2022-08-19T04:10:28.753Z,0.02
2022-08-19T04:15:17.769Z,0.02
2022-08-19T04:20:23.677Z,0.56
2022-08-19T04:25:29.750Z,2.01
2022-08-19T04:30:18.774Z,3.23
2022-08-19T04:35:25.135Z,3.56
2022-08-19T04:40:30.910Z,3.63
2022-08-19T04:45:19.923Z,4.69
2022-08-19T04:50:25.984Z,7.57
2022-08-19T04:55:38.340Z,12.66
2022-08-19T05:00:21.165Z,15.61
2022-08-19T05:05:27.447Z,18.27
2022-08-19T05:10:16.511Z,27.27
2022-08-19T05:15:22.614Z,40.45
2022-08-19T05:20:28.093Z,44.66
2022-08-19T05:25:17.172Z,50.52
2022-08-19T05:30:33.592Z,69.33
2022-08-19T05:35:29.367Z,89.68
2022-08-19T05:40:18.324Z,123.68
2022-08-19T05:45:24.336Z,136.97
2022-08-19T05:50:30.396Z,210.35
2022-08-19T05:55:19.465Z,169.26
2022-08-19T06:00:25.487Z,139.92
2022-08-19T06:05:30.659Z,137.19
2022-08-19T06:10:19.675Z,195.82
2022-08-19T06:20:54.500Z,310.34
2022-08-19T06:25:20.939Z,183.33
2022-08-19T06:30:27.018Z,119.58
2022-08-19T06:35:16.040Z,60.70
2022-08-19T06:40:22.279Z,68.33
2022-08-19T06:45:35.426Z,72.71
2022-08-19T06:50:17.191Z,68.74
2022-08-19T06:55:23.311Z,87.36
2022-08-19T07:00:29.391Z,87.88
2022-08-19T07:05:17.448Z,85.96
2022-08-19T07:10:23.663Z,90.30
2022-08-19T07:15:29.642Z,75.53
2022-08-19T07:20:18.886Z,84.84
2022-08-19T07:25:32.331Z,78.66
2022-08-19T07:30:31.555Z,76.64
2022-08-19T07:35:20.023Z,91.93
2022-08-19T07:40:26.115Z,112.30
2022-08-19T07:45:32.150Z,91.77
2022-08-19T07:55:41.420Z,88.71
2022-08-19T08:00:17.603Z,90.06
2022-08-19T08:05:22.421Z,97.15
2022-08-19T08:10:28.536Z,95.82
2022-08-19T08:15:17.528Z,87.73
2022-08-19T08:20:22.812Z,76.57
2022-08-19T08:25:28.858Z,101.39
2022-08-19T08:30:18.046Z,96.25
2022-08-19T08:35:23.937Z,101.27
2022-08-19T08:40:30.157Z,108.14
2022-08-19T08:45:19.129Z,139.96
2022-08-19T08:50:26.299Z,165.13
2022-08-19T08:55:36.958Z,188.31
2022-08-19T09:00:20.220Z,195.30
2022-08-19T09:05:26.353Z,187.51
2022-08-19T09:10:17.963Z,168.49
2022-08-19T09:15:21.347Z,173.36
2022-08-19T09:20:27.559Z,184.78
2022-08-19T09:25:16.616Z,233.92
2022-08-19T09:30:22.733Z,304.02
2022-08-19T09:35:28.749Z,300.87
2022-08-19T09:40:18.005Z,245.06
2022-08-19T09:45:23.861Z,198.40
2022-08-19T09:50:29.921Z,169.50
2022-08-19T09:55:18.968Z,148.61
2022-08-19T10:00:24.979Z,175.93
2022-08-19T10:05:30.147Z,170.89
2022-08-19T10:10:19.231Z,134.91
2022-08-19T10:15:29.237Z,97.34
2022-08-19T10:20:31.394Z,54.26
2022-08-19T10:25:20.458Z,61.97
2022-08-19T10:30:27.109Z,124.40
2022-08-19T10:35:32.562Z,204.73
2022-08-19T10:40:21.627Z,244.74
2022-08-19T10:45:28.126Z,190.29
2022-08-19T10:50:16.722Z,154.91
2022-08-19T10:55:22.875Z,134.89
2022-08-19T11:00:28.836Z,127.65
2022-08-19T11:05:17.407Z,106.42
2022-08-19T11:10:23.563Z,57.36
2022-08-19T11:15:29.560Z,64.26
2022-08-19T11:20:18.212Z,105.98
2022-08-19T11:25:24.299Z,110.22
2022-08-19T11:30:30.324Z,133.82
2022-08-19T11:35:19.365Z,150.29
2022-08-19T11:40:25.514Z,139.03
2022-08-19T11:45:31.558Z,144.48
2022-08-19T11:50:21.626Z,157.53
2022-08-19T11:55:29.465Z,126.03
2022-08-19T12:00:34.705Z,107.16
2022-08-19T12:05:21.614Z,106.09
2022-08-19T12:10:27.679Z,118.36
2022-08-19T12:15:16.724Z,132.58
2022-08-19T12:20:23.066Z,122.75
2022-08-19T12:25:29.119Z,110.78
2022-08-19T12:30:18.159Z,140.50
2022-08-19T12:35:24.245Z,181.63
2022-08-19T12:40:20.035Z,241.82
2022-08-19T12:45:19.340Z,250.38
2022-08-19T12:50:25.412Z,263.24
2022-08-19T12:55:31.476Z,272.74
2022-08-19T13:00:20.526Z,216.06
2022-08-19T13:05:26.628Z,222.53
2022-08-19T13:10:32.530Z,249.52
2022-08-19T13:15:23.814Z,246.93
2022-08-19T13:20:26.807Z,136.87
2022-08-19T13:25:15.856Z,160.68
2022-08-19T13:30:21.880Z,157.40
2022-08-19T13:35:27.975Z,96.14
2022-08-19T13:40:17.250Z,85.11
2022-08-19T13:45:23.087Z,90.87
2022-08-19T13:50:29.523Z,111.77
2022-08-19T13:55:24.760Z,161.96
2022-08-19T14:00:24.428Z,148.56
2022-08-19T14:05:30.572Z,117.84
2022-08-19T14:10:19.443Z,153.22
2022-08-19T14:15:25.487Z,138.87
2022-08-19T14:20:31.578Z,149.41
2022-08-19T14:25:20.593Z,152.33
2022-08-19T14:30:26.693Z,147.21
2022-08-19T14:35:15.686Z,135.22
2022-08-19T14:40:21.850Z,130.18
2022-08-19T14:45:27.846Z,125.00
2022-08-19T14:50:18.129Z,157.62
2022-08-19T14:55:23.068Z,165.98
2022-08-19T15:00:29.958Z,140.37
2022-08-19T15:05:17.776Z,186.36
2022-08-19T15:10:23.890Z,239.96
2022-08-19T15:15:29.935Z,218.58
2022-08-19T15:20:19.360Z,178.28
2022-08-19T15:25:25.469Z,117.65
2022-08-19T15:30:31.488Z,61.22
2022-08-19T15:35:20.531Z,42.02
2022-08-19T15:40:26.639Z,29.47
2022-08-19T15:45:32.741Z,22.13
2022-08-19T15:50:21.724Z,17.43
2022-08-19T15:55:33.624Z,15.71
2022-08-19T16:00:16.861Z,16.78
2022-08-19T16:05:22.471Z,14.09
2022-08-19T16:10:28.515Z,11.83
2022-08-19T16:15:17.507Z,10.06
2022-08-19T16:20:25.562Z,7.04
2022-08-19T16:25:29.420Z,5.48
2022-08-19T16:30:18.342Z,5.15
2022-08-19T16:35:24.424Z,5.68
2022-08-19T16:40:30.512Z,4.93
2022-08-19T16:45:19.501Z,5.01
2022-08-19T16:50:46.121Z,5.22
2022-08-19T16:55:17.458Z,3.42
2022-08-19T17:00:20.776Z,2.40
2022-08-19T17:05:26.814Z,2.35
2022-08-19T17:10:32.940Z,1.40
2022-08-19T17:15:21.900Z,1.32
2022-08-19T17:20:27.922Z,1.69
2022-08-19T17:25:16.949Z,1.74
2022-08-19T17:30:23.030Z,1.30
2022-08-19T17:35:29.079Z,1.44
2022-08-19T17:40:21.290Z,0.95
2022-08-19T17:45:24.197Z,1.41
2022-08-19T17:50:30.251Z,1.68
2022-08-19T17:55:19.315Z,2.58
2022-08-19T18:00:25.399Z,2.92
2022-08-19T18:05:30.934Z,1.77
2022-08-19T18:10:19.879Z,0.95
2022-08-19T18:15:25.968Z,0.91
2022-08-19T18:20:31.079Z,0.06
2022-08-19T18:25:20.083Z,0.00
2022-08-19T18:30:26.361Z,0.00
2022-08-19T18:35:32.317Z,0.00
2022-08-19T18:40:21.386Z,0.00
2022-08-19T18:45:27.358Z,0.00
2022-08-19T18:50:16.399Z,0.00
2022-08-19T18:55:22.470Z,0.00
2022-08-19T19:00:28.559Z,0.00
2022-08-19T19:05:16.634Z,0.00
2022-08-19T19:10:22.725Z,0.00
2022-08-19T19:15:28.787Z,0.00
2022-08-19T19:20:17.991Z,0.00
2022-08-19T19:25:24.099Z,0.00
2022-08-19T19:30:30.110Z,0.00
2022-08-19T19:35:19.146Z,0.00
2022-08-19T19:40:25.327Z,0.00
2022-08-19T19:45:31.266Z,0.00
2022-08-19T19:50:20.341Z,0.00
2022-08-19T19:55:26.509Z,0.00
2022-08-19T20:00:32.614Z,0.00
2022-08-19T20:05:20.581Z,0.00
2022-08-19T20:10:26.608Z,0.00
2022-08-19T20:15:15.646Z,0.00
2022-08-19T20:20:21.966Z,0.00
2022-08-19T20:25:27.978Z,0.00
2022-08-19T20:30:19.140Z,0.00
2022-08-19T20:35:23.075Z,0.00
2022-08-19T20:40:29.163Z,0.00
2022-08-19T20:45:32.359Z,0.00
2022-08-19T20:50:24.255Z,0.00
2022-08-19T20:55:30.372Z,0.00
2022-08-19T21:00:19.386Z,0.00
2022-08-19T21:05:29.811Z,0.00
2022-08-19T21:10:30.547Z,0.00
2022-08-19T21:15:19.601Z,0.00
2022-08-19T21:20:25.675Z,0.00
2022-08-19T21:25:31.762Z,0.00
2022-08-19T21:30:20.779Z,0.00
2022-08-19T21:35:26.839Z,0.00
2022-08-19T21:40:16.001Z,0.00
2022-08-19T21:45:21.944Z,0.00
2022-08-19T21:50:28.794Z,0.00
2022-08-19T21:55:17.923Z,0.00
2022-08-19T22:00:23.114Z,0.00
2022-08-19T22:05:28.965Z,0.00
2022-08-19T22:10:17.985Z,0.00
2022-08-19T22:15:23.997Z,0.00
2022-08-19T22:20:30.677Z,0.00
2022-08-19T22:25:29.330Z,0.00
2022-08-19T22:30:25.797Z,0.00
2022-08-19T22:35:31.829Z,0.00
2022-08-19T22:40:21.137Z,0.00
2022-08-19T22:45:26.948Z,0.00
2022-08-19T22:50:32.993Z,0.00
2022-08-19T22:55:22.000Z,0.00
2022-08-19T23:00:28.227Z,0.00
2022-08-19T23:05:16.321Z,0.00
2022-08-19T23:10:26.623Z,0.00
2022-08-19T23:15:28.403Z,0.00
2022-08-19T23:20:17.584Z,0.00
2022-08-19T23:25:23.681Z,0.00
2022-08-19T23:30:29.698Z,0.00
2022-08-19T23:35:18.736Z,0.00
2022-08-19T23:40:24.821Z,0.00
2022-08-19T23:45:32.738Z,0.00
2022-08-19T23:50:19.948Z,0.00
2022-08-19T23:55:26.035Z,0.00
